首页
METAR-TAF:

METAR-TAF

机场 :

伦敦Biggin Hill, 英格兰

纬度: 51-19N, 经度: 000-02E, 海拔: 183米

当前天气观测

该预报发布于29分钟前的10:50 UTC
风速16节,风向南转西南,有时为26节阵风
温度 14°C
湿度 100%
气压 1017 hPa
能見度: 4000
少量云层高于500英尺
多云层高于1000英尺
雨, 毛毛雨

METAR: EGKB 161050Z 21016G26KT 4000 RADZ FEW005 BKN010 14/14 Q1017

时间: 12:19 (11:19 UTC)

预报

该预报发布于19分钟前的11:00 UTC
预报有效从16日的 11点(UTC)到 16日的 18点(UTC)
风速12节,风向南转西南
能见度10公里或以上
散云层高于1200英尺
短暂存在
从 16日的 11点(UTC)到 16日的 16点(UTC)
风速16节,风向西南,有时为26节阵风
能見度: 8000
阵雨

TAF: EGKB 161100Z 1611/1618 20012KT 9999 SCT012 TEMPO 1611/1616 22016G26KT 8000 SHRA

超过4000个机场的气象观测和天气预报(METAR&TAF报告)。

可查询的气象台以黄色和红色小点在地图上表示。

将鼠标移到小点上方,可查看气象台名称。

然后点击查看天气观测和预报。

如需切换地图:点击带黑十字的绿色按钮放大地图;点击带横线的绿色按钮缩小地图;或者点击绿色箭头查看邻近地区的地图。


METAR-TAF: